PDA6018 UKBB-LBBG
Flight info
| Callsign | PDA6018 |
|---|---|
| Flight time | 1h 25m |
| Altitude | 37000 |
| Route | BASOR DCT SULUM DCT GOBLI L919 ODSAN/K0807F390 L919 BAGRI/N0433F380 DCT DINRO DCT RUTAR |
| Aircraft | A320/M-VD/A |
Departure
| Time | 2026-05-05 08:49 |
|---|---|
| Airport | Boryspil International Airport (UKBB) |
Arrival
| Time | 2026-05-05 10:14 |
|---|---|
| Airport | Burgas Airport (LBBG) |
| Time | Latitude | Longitude | Altitude | Speed | Heading |
|---|---|---|---|---|---|
| 2026-05-05 08:37 | 50.33560 | 30.89926 | 428 ft | 0 kts | 3° |
| 2026-05-05 08:44 | 50.33584 | 30.89932 | 420 ft | 8 kts | 20° |
| 2026-05-05 08:44 | 50.33600 | 30.90029 | 426 ft | 8 kts | 91° |
| 2026-05-05 08:44 | 50.33609 | 30.90129 | 435 ft | 10 kts | 45° |
| 2026-05-05 08:45 | 50.33712 | 30.90144 | 433 ft | 20 kts | 0° |
| 2026-05-05 08:45 | 50.33881 | 30.90158 | 425 ft | 29 kts | 2° |
| 2026-05-05 08:45 | 50.34093 | 30.90168 | 429 ft | 29 kts | 3° |
| 2026-05-05 08:45 | 50.34322 | 30.90196 | 430 ft | 37 kts | 4° |
| 2026-05-05 08:46 | 50.34529 | 30.90212 | 431 ft | 29 kts | 1° |
| 2026-05-05 08:46 | 50.34756 | 30.90223 | 421 ft | 37 kts | 2° |
| 2026-05-05 08:46 | 50.34981 | 30.90237 | 428 ft | 28 kts | 3° |
| 2026-05-05 08:46 | 50.35169 | 30.90249 | 427 ft | 29 kts | 2° |
| 2026-05-05 08:47 | 50.35299 | 30.90282 | 430 ft | 11 kts | 38° |
| 2026-05-05 08:47 | 50.35279 | 30.90401 | 423 ft | 10 kts | 149° |
| 2026-05-05 08:47 | 50.35211 | 30.90459 | 424 ft | 11 kts | 153° |
| 2026-05-05 08:47 | 50.35119 | 30.90532 | 425 ft | 18 kts | 153° |
| 2026-05-05 08:48 | 50.35031 | 30.90573 | 424 ft | 5 kts | 182° |
| 2026-05-05 08:48 | 50.34951 | 30.90568 | 430 ft | 36 kts | 182° |
| 2026-05-05 08:48 | 50.34403 | 30.90524 | 426 ft | 120 kts | 181° |
| 2026-05-05 08:48 | 50.33372 | 30.90362 | 740 ft | 156 kts | 194° |
| 2026-05-05 08:49 | 50.32327 | 30.90119 | 1777 ft | 155 kts | 190° |
| 2026-05-05 08:49 | 50.31208 | 30.89960 | 2397 ft | 167 kts | 188° |
| 2026-05-05 08:49 | 50.29969 | 30.89826 | 2747 ft | 191 kts | 186° |
| 2026-05-05 08:49 | 50.28555 | 30.89747 | 3136 ft | 216 kts | 185° |
| 2026-05-05 08:50 | 50.26990 | 30.89682 | 3644 ft | 240 kts | 184° |
| 2026-05-05 08:50 | 50.25243 | 30.89618 | 4272 ft | 258 kts | 182° |
| 2026-05-05 08:50 | 50.23424 | 30.89552 | 5177 ft | 265 kts | 182° |
| 2026-05-05 08:50 | 50.21565 | 30.89476 | 6136 ft | 270 kts | 182° |
| 2026-05-05 08:51 | 50.19668 | 30.89390 | 7075 ft | 274 kts | 182° |
| 2026-05-05 08:51 | 50.17752 | 30.89146 | 7971 ft | 280 kts | 191° |
| 2026-05-05 08:51 | 50.15827 | 30.88503 | 8846 ft | 286 kts | 193° |
| 2026-05-05 08:51 | 50.13890 | 30.87651 | 9719 ft | 292 kts | 197° |
| 2026-05-05 08:52 | 50.11938 | 30.86665 | 10499 ft | 298 kts | 198° |
| 2026-05-05 08:52 | 50.09904 | 30.85622 | 10930 ft | 319 kts | 197° |
| 2026-05-05 08:52 | 50.07722 | 30.84538 | 11322 ft | 337 kts | 197° |
| 2026-05-05 08:52 | 50.05451 | 30.83461 | 12035 ft | 343 kts | 194° |
| 2026-05-05 08:53 | 50.03097 | 30.82701 | 12786 ft | 348 kts | 189° |
| 2026-05-05 08:53 | 50.00694 | 30.82007 | 13494 ft | 354 kts | 189° |
| 2026-05-05 08:53 | 49.98246 | 30.81313 | 14176 ft | 359 kts | 189° |
| 2026-05-05 08:53 | 49.95772 | 30.80616 | 14849 ft | 363 kts | 189° |
| 2026-05-05 08:54 | 49.93267 | 30.79905 | 15524 ft | 366 kts | 189° |
| 2026-05-05 08:54 | 49.90750 | 30.79189 | 16198 ft | 370 kts | 189° |
| 2026-05-05 08:54 | 49.88241 | 30.78473 | 16857 ft | 373 kts | 189° |
| 2026-05-05 08:54 | 49.85675 | 30.77739 | 17535 ft | 376 kts | 189° |
| 2026-05-05 08:55 | 49.83084 | 30.76997 | 18214 ft | 380 kts | 189° |
| 2026-05-05 08:55 | 49.80478 | 30.76256 | 18817 ft | 383 kts | 189° |
| 2026-05-05 08:55 | 49.77841 | 30.75507 | 19419 ft | 386 kts | 189° |
| 2026-05-05 08:55 | 49.75186 | 30.74758 | 20042 ft | 389 kts | 189° |
| 2026-05-05 08:56 | 49.72516 | 30.73999 | 20648 ft | 391 kts | 189° |
| 2026-05-05 08:56 | 49.69829 | 30.73229 | 21236 ft | 394 kts | 188° |
| 2026-05-05 08:56 | 49.67121 | 30.72451 | 21763 ft | 398 kts | 188° |
| 2026-05-05 08:56 | 49.64387 | 30.71673 | 22298 ft | 401 kts | 188° |
| 2026-05-05 08:57 | 49.61639 | 30.70897 | 22845 ft | 404 kts | 188° |
| 2026-05-05 08:57 | 49.58866 | 30.70117 | 23417 ft | 407 kts | 188° |
| 2026-05-05 08:57 | 49.56070 | 30.69385 | 23901 ft | 409 kts | 184° |
| 2026-05-05 08:57 | 49.53227 | 30.69186 | 24370 ft | 410 kts | 178° |
| 2026-05-05 08:58 | 49.50361 | 30.69136 | 24818 ft | 413 kts | 178° |
| 2026-05-05 08:58 | 49.48592 | 30.69104 | 25093 ft | 414 kts | 178° |
| 2026-05-05 08:59 | 49.45907 | 30.69008 | 25478 ft | 417 kts | 179° |
| 2026-05-05 08:59 | 49.42990 | 30.68927 | 25945 ft | 419 kts | 178° |
| 2026-05-05 08:59 | 49.40101 | 30.68876 | 26395 ft | 422 kts | 178° |
| 2026-05-05 08:59 | 49.37160 | 30.68832 | 26848 ft | 424 kts | 178° |
| 2026-05-05 09:00 | 49.36163 | 30.68816 | 26999 ft | 425 kts | 178° |
| 2026-05-05 09:01 | 49.35222 | 30.68812 | 26897 ft | 429 kts | 175° |
| 2026-05-05 09:02 | 49.32196 | 30.69198 | 26538 ft | 449 kts | 174° |
| 2026-05-05 09:02 | 49.29087 | 30.69282 | 27372 ft | 441 kts | 179° |
| 2026-05-05 09:02 | 49.26036 | 30.69100 | 28189 ft | 436 kts | 181° |
| 2026-05-05 09:02 | 49.23005 | 30.68823 | 28729 ft | 437 kts | 181° |
| 2026-05-05 09:03 | 49.20993 | 30.68642 | 29016 ft | 438 kts | 181° |
| 2026-05-05 09:04 | 49.19633 | 30.68597 | 29433 ft | 431 kts | 177° |
| 2026-05-05 09:04 | 49.16618 | 30.68599 | 29754 ft | 438 kts | 178° |
| 2026-05-05 09:04 | 49.13543 | 30.68514 | 30053 ft | 444 kts | 179° |
| 2026-05-05 09:05 | 49.10762 | 30.68395 | 30367 ft | 446 kts | 179° |
| 2026-05-05 09:05 | 49.08702 | 30.68304 | 30614 ft | 448 kts | 179° |
| 2026-05-05 09:05 | 49.05580 | 30.68183 | 31006 ft | 449 kts | 179° |
| 2026-05-05 09:05 | 49.04467 | 30.68146 | 31134 ft | 450 kts | 179° |
| 2026-05-05 09:06 | 49.00273 | 30.68038 | 31653 ft | 452 kts | 179° |
| 2026-05-05 09:06 | 48.98138 | 30.67995 | 32004 ft | 451 kts | 179° |
| 2026-05-05 09:06 | 48.95048 | 30.67936 | 32557 ft | 448 kts | 179° |
| 2026-05-05 09:06 | 48.91932 | 30.67878 | 33120 ft | 446 kts | 179° |
| 2026-05-05 09:07 | 48.88839 | 30.67821 | 33677 ft | 444 kts | 179° |
| 2026-05-05 09:07 | 48.85759 | 30.67759 | 34211 ft | 442 kts | 179° |
| 2026-05-05 09:07 | 48.82686 | 30.67695 | 34662 ft | 440 kts | 179° |
| 2026-05-05 09:07 | 48.79618 | 30.67630 | 35077 ft | 440 kts | 179° |
| 2026-05-05 09:08 | 48.76557 | 30.67564 | 35472 ft | 439 kts | 179° |
| 2026-05-05 09:08 | 48.73504 | 30.67502 | 35842 ft | 439 kts | 179° |
| 2026-05-05 09:08 | 48.70437 | 30.67437 | 36219 ft | 438 kts | 179° |
| 2026-05-05 09:08 | 48.67386 | 30.67373 | 36579 ft | 438 kts | 179° |
| 2026-05-05 09:09 | 48.64332 | 30.67310 | 36932 ft | 438 kts | 179° |
| 2026-05-05 09:09 | 48.62422 | 30.67271 | 36924 ft | 439 kts | 179° |
| 2026-05-05 09:10 | 48.56405 | 30.67146 | 37057 ft | 433 kts | 179° |
| 2026-05-05 09:10 | 48.50362 | 30.67030 | 37057 ft | 435 kts | 179° |
| 2026-05-05 09:11 | 48.44336 | 30.66912 | 37057 ft | 435 kts | 179° |
| 2026-05-05 09:11 | 48.38270 | 30.66779 | 37057 ft | 435 kts | 179° |
| 2026-05-05 09:12 | 48.34723 | 30.66711 | 37057 ft | 434 kts | 179° |
| 2026-05-05 09:12 | 48.29217 | 30.66607 | 37055 ft | 434 kts | 179° |
| 2026-05-05 09:13 | 48.23173 | 30.66468 | 37059 ft | 434 kts | 179° |
| 2026-05-05 09:13 | 48.17147 | 30.66330 | 37061 ft | 435 kts | 179° |
| 2026-05-05 09:14 | 48.11080 | 30.66209 | 37060 ft | 435 kts | 179° |
| 2026-05-05 09:14 | 48.05059 | 30.65233 | 37063 ft | 436 kts | 188° |
| 2026-05-05 09:15 | 47.99099 | 30.63719 | 37063 ft | 437 kts | 188° |
| 2026-05-05 09:15 | 47.93097 | 30.62206 | 37065 ft | 437 kts | 188° |
| 2026-05-05 09:16 | 47.88041 | 30.60943 | 37066 ft | 437 kts | 188° |
| 2026-05-05 09:16 | 47.82080 | 30.59457 | 37068 ft | 437 kts | 188° |
| 2026-05-05 09:17 | 47.76078 | 30.57961 | 37072 ft | 437 kts | 188° |
| 2026-05-05 09:17 | 47.70073 | 30.56469 | 37071 ft | 437 kts | 188° |
| 2026-05-05 09:18 | 47.64070 | 30.54980 | 37068 ft | 437 kts | 188° |
| 2026-05-05 09:18 | 47.58069 | 30.53496 | 37068 ft | 437 kts | 188° |
| 2026-05-05 09:19 | 47.52066 | 30.52003 | 37064 ft | 437 kts | 188° |
| 2026-05-05 09:19 | 47.46057 | 30.50519 | 37064 ft | 438 kts | 188° |
| 2026-05-05 09:20 | 47.40040 | 30.49048 | 37074 ft | 438 kts | 188° |
| 2026-05-05 09:20 | 47.35045 | 30.47827 | 37076 ft | 438 kts | 188° |
| 2026-05-05 09:21 | 47.33816 | 30.47526 | 37075 ft | 437 kts | 188° |
| 2026-05-05 09:21 | 47.29777 | 30.46003 | 37071 ft | 437 kts | 192° |
| 2026-05-05 09:22 | 47.23783 | 30.44528 | 37065 ft | 436 kts | 185° |
| 2026-05-05 09:22 | 47.17746 | 30.43518 | 37066 ft | 437 kts | 186° |
| 2026-05-05 09:23 | 47.11730 | 30.42253 | 37070 ft | 437 kts | 188° |
| 2026-05-05 09:23 | 47.05728 | 30.40751 | 37069 ft | 438 kts | 189° |
| 2026-05-05 09:24 | 46.99715 | 30.39215 | 37066 ft | 438 kts | 189° |
| 2026-05-05 09:24 | 46.93705 | 30.37749 | 37071 ft | 438 kts | 188° |
| 2026-05-05 09:25 | 46.87736 | 30.36336 | 37074 ft | 438 kts | 188° |
| 2026-05-05 09:25 | 46.84728 | 30.35621 | 37074 ft | 438 kts | 188° |
| 2026-05-05 09:26 | 46.81482 | 30.35264 | 37087 ft | 435 kts | 178° |
| 2026-05-05 09:27 | 46.75462 | 30.34333 | 37075 ft | 437 kts | 191° |
| 2026-05-05 09:27 | 46.69542 | 30.32252 | 37068 ft | 438 kts | 192° |
| 2026-05-05 09:28 | 46.63579 | 30.30410 | 37061 ft | 438 kts | 189° |
| 2026-05-05 09:28 | 46.57599 | 30.28994 | 37068 ft | 438 kts | 187° |
| 2026-05-05 09:29 | 46.51570 | 30.27688 | 37067 ft | 438 kts | 188° |
| 2026-05-05 09:29 | 46.45532 | 30.26308 | 37068 ft | 439 kts | 188° |
| 2026-05-05 09:30 | 46.39504 | 30.24874 | 37071 ft | 439 kts | 188° |
| 2026-05-05 09:30 | 46.33462 | 30.23433 | 37080 ft | 440 kts | 188° |
| 2026-05-05 09:31 | 46.27413 | 30.22005 | 37081 ft | 440 kts | 188° |
| 2026-05-05 09:31 | 46.21400 | 30.20603 | 37077 ft | 440 kts | 188° |
| 2026-05-05 09:32 | 46.15388 | 30.18874 | 37082 ft | 441 kts | 195° |
| 2026-05-05 09:32 | 46.09473 | 30.16458 | 37085 ft | 441 kts | 195° |
| 2026-05-05 09:33 | 46.03562 | 30.14054 | 37085 ft | 442 kts | 195° |
| 2026-05-05 09:33 | 45.97672 | 30.11678 | 37082 ft | 442 kts | 195° |
| 2026-05-05 09:34 | 45.91740 | 30.09307 | 37087 ft | 443 kts | 195° |
| 2026-05-05 09:34 | 45.85796 | 30.06933 | 37090 ft | 443 kts | 195° |
| 2026-05-05 09:35 | 45.79855 | 30.04545 | 37095 ft | 443 kts | 195° |
| 2026-05-05 09:35 | 45.70928 | 30.00976 | 37094 ft | 444 kts | 195° |
| 2026-05-05 09:36 | 45.64978 | 29.98610 | 37102 ft | 444 kts | 195° |
| 2026-05-05 09:36 | 45.59019 | 29.96248 | 37100 ft | 444 kts | 195° |
| 2026-05-05 09:37 | 45.53103 | 29.93903 | 37099 ft | 444 kts | 195° |
| 2026-05-05 09:37 | 45.47142 | 29.91539 | 37099 ft | 444 kts | 195° |
| 2026-05-05 09:38 | 45.41181 | 29.89177 | 37094 ft | 445 kts | 195° |
| 2026-05-05 09:38 | 45.35207 | 29.86816 | 37095 ft | 445 kts | 195° |
| 2026-05-05 09:39 | 45.29234 | 29.84468 | 37096 ft | 446 kts | 195° |
| 2026-05-05 09:39 | 45.23251 | 29.82126 | 37101 ft | 446 kts | 195° |
| 2026-05-05 09:40 | 45.17350 | 29.79441 | 37106 ft | 446 kts | 205° |
| 2026-05-05 09:40 | 45.11757 | 29.75599 | 37105 ft | 446 kts | 206° |
| 2026-05-05 09:41 | 45.06210 | 29.71782 | 37106 ft | 447 kts | 206° |
| 2026-05-05 09:41 | 45.00616 | 29.67953 | 37095 ft | 447 kts | 206° |
| 2026-05-05 09:42 | 44.95011 | 29.64121 | 37098 ft | 447 kts | 206° |
| 2026-05-05 09:42 | 44.89519 | 29.60000 | 37094 ft | 447 kts | 212° |
| 2026-05-05 09:43 | 44.84245 | 29.55332 | 37094 ft | 448 kts | 213° |
| 2026-05-05 09:43 | 44.79000 | 29.50597 | 37101 ft | 448 kts | 213° |
| 2026-05-05 09:44 | 44.73741 | 29.45886 | 37101 ft | 448 kts | 212° |
| 2026-05-05 09:44 | 44.68462 | 29.41214 | 37108 ft | 448 kts | 212° |
| 2026-05-05 09:45 | 44.63181 | 29.36563 | 37105 ft | 448 kts | 212° |
| 2026-05-05 09:45 | 44.57942 | 29.31950 | 37016 ft | 448 kts | 212° |
| 2026-05-05 09:46 | 44.55288 | 29.29617 | 36473 ft | 448 kts | 212° |
| 2026-05-05 09:46 | 44.52752 | 29.27384 | 36058 ft | 445 kts | 212° |
| 2026-05-05 09:46 | 44.50119 | 29.25063 | 35620 ft | 441 kts | 212° |
| 2026-05-05 09:46 | 44.47529 | 29.22785 | 35213 ft | 437 kts | 211° |
| 2026-05-05 09:47 | 44.44974 | 29.20541 | 34535 ft | 431 kts | 211° |
| 2026-05-05 09:47 | 44.42436 | 29.18319 | 34108 ft | 428 kts | 211° |
| 2026-05-05 09:47 | 44.39920 | 29.16121 | 33655 ft | 424 kts | 211° |
| 2026-05-05 09:47 | 44.37429 | 29.13948 | 33195 ft | 420 kts | 211° |
| 2026-05-05 09:48 | 44.34952 | 29.11790 | 32745 ft | 417 kts | 211° |
| 2026-05-05 09:48 | 44.32532 | 29.09682 | 32318 ft | 413 kts | 211° |
| 2026-05-05 09:48 | 44.30100 | 29.07563 | 31881 ft | 410 kts | 211° |
| 2026-05-05 09:48 | 44.27684 | 29.05460 | 31453 ft | 407 kts | 211° |
| 2026-05-05 09:49 | 44.25283 | 29.03373 | 31030 ft | 404 kts | 211° |
| 2026-05-05 09:49 | 44.22904 | 29.01309 | 30628 ft | 401 kts | 210° |
| 2026-05-05 09:49 | 44.20541 | 28.99264 | 30231 ft | 398 kts | 210° |
| 2026-05-05 09:49 | 44.18189 | 28.97228 | 29780 ft | 396 kts | 210° |
| 2026-05-05 09:50 | 44.15857 | 28.95209 | 29307 ft | 394 kts | 210° |
| 2026-05-05 09:50 | 44.13537 | 28.93197 | 28848 ft | 392 kts | 211° |
| 2026-05-05 09:50 | 44.11225 | 28.91192 | 28401 ft | 390 kts | 211° |
| 2026-05-05 09:50 | 44.08947 | 28.89220 | 27951 ft | 389 kts | 211° |
| 2026-05-05 09:51 | 44.06653 | 28.87236 | 27492 ft | 387 kts | 211° |
| 2026-05-05 09:51 | 44.04365 | 28.85260 | 27037 ft | 386 kts | 211° |
| 2026-05-05 09:51 | 44.02089 | 28.83297 | 26600 ft | 384 kts | 211° |
| 2026-05-05 09:51 | 43.99816 | 28.81344 | 26138 ft | 383 kts | 211° |
| 2026-05-05 09:52 | 43.97553 | 28.79401 | 25692 ft | 382 kts | 211° |
| 2026-05-05 09:52 | 43.95294 | 28.77463 | 25252 ft | 381 kts | 211° |
| 2026-05-05 09:52 | 43.93044 | 28.75532 | 24806 ft | 380 kts | 211° |
| 2026-05-05 09:52 | 43.91558 | 28.74256 | 24520 ft | 379 kts | 211° |
| 2026-05-05 09:53 | 43.88596 | 28.71713 | 23960 ft | 378 kts | 211° |
| 2026-05-05 09:53 | 43.86359 | 28.69800 | 23514 ft | 377 kts | 211° |
| 2026-05-05 09:53 | 43.84132 | 28.67899 | 23037 ft | 375 kts | 212° |
| 2026-05-05 09:53 | 43.81915 | 28.66005 | 22574 ft | 374 kts | 212° |
| 2026-05-05 09:54 | 43.79708 | 28.64125 | 22125 ft | 372 kts | 212° |
| 2026-05-05 09:54 | 43.78222 | 28.62858 | 21826 ft | 371 kts | 212° |
| 2026-05-05 09:54 | 43.76032 | 28.60991 | 21412 ft | 369 kts | 212° |
| 2026-05-05 09:54 | 43.73851 | 28.59134 | 21011 ft | 366 kts | 212° |
| 2026-05-05 09:55 | 43.71686 | 28.57293 | 20592 ft | 364 kts | 212° |
| 2026-05-05 09:55 | 43.69557 | 28.55483 | 20204 ft | 363 kts | 212° |
| 2026-05-05 09:55 | 43.67410 | 28.53662 | 19791 ft | 361 kts | 212° |
| 2026-05-05 09:55 | 43.65265 | 28.51845 | 19389 ft | 360 kts | 212° |
| 2026-05-05 09:56 | 43.63132 | 28.50041 | 19000 ft | 359 kts | 212° |
| 2026-05-05 09:56 | 43.61723 | 28.48849 | 18756 ft | 358 kts | 213° |
| 2026-05-05 09:57 | 43.48905 | 28.37996 | 16468 ft | 347 kts | 213° |
| 2026-05-05 09:58 | 43.46866 | 28.36276 | 15875 ft | 342 kts | 213° |
| 2026-05-05 09:58 | 43.44846 | 28.34576 | 15246 ft | 339 kts | 213° |
| 2026-05-05 09:58 | 43.42842 | 28.32894 | 14639 ft | 335 kts | 212° |
| 2026-05-05 09:58 | 43.40861 | 28.31237 | 14047 ft | 332 kts | 212° |
| 2026-05-05 09:59 | 43.38897 | 28.29594 | 13400 ft | 329 kts | 212° |
| 2026-05-05 09:59 | 43.36954 | 28.27968 | 12747 ft | 325 kts | 212° |
| 2026-05-05 09:59 | 43.35032 | 28.26354 | 12113 ft | 324 kts | 212° |
| 2026-05-05 09:59 | 43.33114 | 28.24741 | 11759 ft | 322 kts | 213° |
| 2026-05-05 10:00 | 43.31209 | 28.23139 | 11435 ft | 320 kts | 213° |
| 2026-05-05 10:00 | 43.29314 | 28.21548 | 11096 ft | 318 kts | 213° |
| 2026-05-05 10:00 | 43.27427 | 28.19972 | 10763 ft | 317 kts | 212° |
| 2026-05-05 10:00 | 43.25573 | 28.18428 | 10439 ft | 315 kts | 212° |
| 2026-05-05 10:01 | 43.23705 | 28.16870 | 10122 ft | 314 kts | 212° |
| 2026-05-05 10:01 | 43.21848 | 28.15320 | 9780 ft | 312 kts | 212° |
| 2026-05-05 10:01 | 43.19996 | 28.13777 | 9440 ft | 310 kts | 212° |
| 2026-05-05 10:01 | 43.18159 | 28.12249 | 9101 ft | 308 kts | 212° |
| 2026-05-05 10:02 | 43.16330 | 28.10729 | 8767 ft | 306 kts | 212° |
| 2026-05-05 10:02 | 43.14514 | 28.09219 | 8442 ft | 305 kts | 213° |
| 2026-05-05 10:02 | 43.12701 | 28.07710 | 8106 ft | 303 kts | 213° |
| 2026-05-05 10:02 | 43.10903 | 28.06217 | 7773 ft | 302 kts | 213° |
| 2026-05-05 10:03 | 43.09115 | 28.04732 | 7456 ft | 300 kts | 213° |
| 2026-05-05 10:03 | 43.07335 | 28.03254 | 7140 ft | 298 kts | 213° |
| 2026-05-05 10:03 | 43.05561 | 28.01784 | 6826 ft | 297 kts | 213° |
| 2026-05-05 10:03 | 43.03799 | 28.00324 | 6523 ft | 295 kts | 213° |
| 2026-05-05 10:04 | 43.02047 | 27.98871 | 6185 ft | 294 kts | 213° |
| 2026-05-05 10:04 | 43.00327 | 27.97446 | 5882 ft | 291 kts | 212° |
| 2026-05-05 10:04 | 42.98578 | 27.96000 | 5578 ft | 289 kts | 212° |
| 2026-05-05 10:04 | 42.96890 | 27.94606 | 5280 ft | 287 kts | 212° |
| 2026-05-05 10:05 | 42.95193 | 27.93206 | 4966 ft | 284 kts | 212° |
| 2026-05-05 10:05 | 42.93502 | 27.91813 | 4649 ft | 283 kts | 212° |
| 2026-05-05 10:05 | 42.91832 | 27.90436 | 4499 ft | 280 kts | 212° |
| 2026-05-05 10:05 | 42.90162 | 27.89058 | 4513 ft | 281 kts | 212° |
| 2026-05-05 10:06 | 42.88505 | 27.87692 | 4511 ft | 274 kts | 212° |
| 2026-05-05 10:06 | 42.86911 | 27.86384 | 4506 ft | 260 kts | 212° |
| 2026-05-05 10:06 | 42.85393 | 27.85140 | 4504 ft | 246 kts | 212° |
| 2026-05-05 10:06 | 42.83965 | 27.83966 | 4497 ft | 233 kts | 212° |
| 2026-05-05 10:07 | 42.82612 | 27.82853 | 4503 ft | 223 kts | 212° |
| 2026-05-05 10:07 | 42.81289 | 27.81762 | 4508 ft | 221 kts | 212° |
| 2026-05-05 10:07 | 42.79980 | 27.80686 | 4309 ft | 219 kts | 212° |
| 2026-05-05 10:07 | 42.78670 | 27.79612 | 4050 ft | 220 kts | 212° |
| 2026-05-05 10:08 | 42.77378 | 27.78522 | 3890 ft | 215 kts | 218° |
| 2026-05-05 10:08 | 42.76297 | 27.77217 | 3770 ft | 206 kts | 226° |
| 2026-05-05 10:08 | 42.75293 | 27.75866 | 3624 ft | 199 kts | 226° |
| 2026-05-05 10:08 | 42.74338 | 27.74581 | 3499 ft | 192 kts | 225° |
| 2026-05-05 10:09 | 42.73400 | 27.73327 | 3353 ft | 187 kts | 226° |
| 2026-05-05 10:09 | 42.72482 | 27.72100 | 3085 ft | 185 kts | 226° |
| 2026-05-05 10:09 | 42.71563 | 27.70872 | 2853 ft | 184 kts | 226° |
| 2026-05-05 10:09 | 42.70642 | 27.69644 | 2483 ft | 187 kts | 224° |
| 2026-05-05 10:10 | 42.69725 | 27.68421 | 2409 ft | 184 kts | 224° |
| 2026-05-05 10:10 | 42.68805 | 27.67195 | 2397 ft | 185 kts | 224° |
| 2026-05-05 10:10 | 42.67886 | 27.65971 | 2394 ft | 179 kts | 224° |
| 2026-05-05 10:10 | 42.67010 | 27.64804 | 2408 ft | 175 kts | 224° |
| 2026-05-05 10:11 | 42.66146 | 27.63654 | 2318 ft | 172 kts | 223° |
| 2026-05-05 10:11 | 42.65323 | 27.62559 | 2116 ft | 159 kts | 223° |
| 2026-05-05 10:11 | 42.64572 | 27.61560 | 1938 ft | 148 kts | 223° |
| 2026-05-05 10:11 | 42.63860 | 27.60612 | 1725 ft | 142 kts | 223° |
| 2026-05-05 10:12 | 42.63156 | 27.59678 | 1543 ft | 140 kts | 223° |
| 2026-05-05 10:12 | 42.62458 | 27.58750 | 1371 ft | 140 kts | 223° |
| 2026-05-05 10:12 | 42.61767 | 27.57834 | 1175 ft | 138 kts | 221° |
| 2026-05-05 10:12 | 42.61078 | 27.56918 | 997 ft | 138 kts | 220° |
| 2026-05-05 10:13 | 42.60396 | 27.56012 | 809 ft | 136 kts | 220° |
| 2026-05-05 10:13 | 42.59718 | 27.55113 | 634 ft | 135 kts | 219° |
| 2026-05-05 10:13 | 42.59046 | 27.54224 | 450 ft | 135 kts | 219° |
| 2026-05-05 10:13 | 42.58376 | 27.53330 | 263 ft | 134 kts | 220° |
| 2026-05-05 10:14 | 42.57719 | 27.52436 | 156 ft | 129 kts | 218° |
| 2026-05-05 10:14 | 42.57131 | 27.51689 | 143 ft | 103 kts | 226° |
| 2026-05-05 10:14 | 42.56832 | 27.51266 | 137 ft | 35 kts | 223° |
| 2026-05-05 10:14 | 42.56625 | 27.51013 | 134 ft | 43 kts | 223° |
| 2026-05-05 10:15 | 42.56422 | 27.50765 | 133 ft | 32 kts | 216° |
| 2026-05-05 10:15 | 42.56240 | 27.50693 | 128 ft | 21 kts | 168° |
| 2026-05-05 10:15 | 42.56184 | 27.50782 | 129 ft | 14 kts | 98° |
| 2026-05-05 10:15 | 42.56198 | 27.50840 | 127 ft | 7 kts | 53° |
| 2026-05-05 10:16 | 42.56251 | 27.50920 | 132 ft | 16 kts | 47° |
| 2026-05-05 10:16 | 42.56335 | 27.51049 | 133 ft | 16 kts | 47° |
| 2026-05-05 10:16 | 42.56424 | 27.51182 | 134 ft | 17 kts | 51° |
| 2026-05-05 10:16 | 42.56501 | 27.51272 | 135 ft | 17 kts | 12° |
| 2026-05-05 10:17 | 42.56584 | 27.51292 | 136 ft | 7 kts | 52° |
| 2026-05-05 10:17 | 42.56581 | 27.51342 | 136 ft | 7 kts | 139° |
| 2026-05-05 10:17 | 42.56577 | 27.51346 | 136 ft | 0 kts | 140° |